Time;durP1;ratioP1;P1;durP2;ratioP2;P2;SDS_P1;SDS_P2;PMS_P1;PMS_P2;Temp;Humidity;BMP_temperature;BMP_pressure;BME280_temperature;BME280_humidity;BME280_pressure;Samples;Min_cycle;Max_cycle;Signal;HPM_P1;HPM_P2
2023/10/11 00:01:09;;;;;;;7.40;2.03;;;;;;;15.34;58.61;101312.25;5093443;28;20058;-67
2023/10/11 00:03:35;;;;;;;4.05;1.90;;;;;;;15.34;58.40;101309.66;5093472;28;20036;-67
2023/10/11 00:06:05;;;;;;;7.85;2.33;;;;;;;15.33;58.08;101315.69;5092957;28;20051;-67
2023/10/11 00:08:39;;;;;;;3.72;1.80;;;;;;;15.13;58.04;101280.41;5093300;28;20064;-67
2023/10/11 00:11:07;;;;;;;3.60;1.88;;;;;;;15.28;57.79;101316.41;5093293;28;20043;-67
2023/10/11 00:13:33;;;;;;;5.00;2.55;;;;;;;15.31;57.74;101311.28;5093280;28;20072;-67
2023/10/11 00:16:07;;;;;;;3.40;1.65;;;;;;;15.38;57.25;101308.03;5092721;28;20072;-67
2023/10/11 00:18:39;;;;;;;3.72;1.70;;;;;;;15.39;57.82;101312.41;5092568;28;20502;-67
2023/10/11 00:21:17;;;;;;;5.05;1.65;;;;;;;15.35;57.45;101314.03;5093125;28;20490;-67
2023/10/11 00:23:50;;;;;;;5.07;1.98;;;;;;;15.29;57.38;101318.16;5092984;28;20064;-67
2023/10/11 00:26:18;;;;;;;7.80;1.80;;;;;;;15.27;57.58;101312.91;5092819;28;20101;-67
2023/10/11 00:28:44;;;;;;;3.60;1.40;;;;;;;15.02;57.49;101277.44;5093167;28;20051;-67
2023/10/11 00:31:16;;;;;;;13.98;2.72;;;;;;;15.06;57.25;101283.63;5092929;28;20393;-67
2023/10/11 00:33:42;;;;;;;5.03;1.45;;;;;;;15.21;57.74;101323.13;5092441;28;20181;-67
2023/10/11 00:36:08;;;;;;;3.13;1.40;;;;;;;15.18;57.64;101321.31;5092520;28;20111;-67
2023/10/11 00:38:43;;;;;;;3.92;1.40;;;;;;;15.11;57.08;101321.94;5092632;28;20036;-67
2023/10/11 00:41:18;;;;;;;4.00;1.70;;;;;;;15.04;57.33;101307.88;5091615;28;20028;-67
2023/10/11 00:43:51;;;;;;;3.92;1.90;;;;;;;15.10;57.39;101325.38;5092580;28;20043;-67
2023/10/11 00:46:36;;;;;;;4.57;1.83;;;;;;;15.13;57.40;101322.00;5056467;28;20039;-67
2023/10/11 00:49:09;;;;;;;7.53;2.15;;;;;;;14.94;57.20;101292.81;5056415;28;20040;-67
2023/10/11 00:51:36;;;;;;;7.38;1.83;;;;;;;15.14;57.55;101321.16;5092465;28;20083;-67
2023/10/11 00:54:07;;;;;;;4.45;1.55;;;;;;;15.07;57.41;101312.28;5092811;28;20051;-67
2023/10/11 00:56:32;;;;;;;5.53;1.65;;;;;;;15.13;57.97;101327.22;5092257;28;20441;-67
2023/10/11 00:59:14;;;;;;;6.05;1.55;;;;;;;15.12;57.58;101321.09;5091545;28;20052;-67
2023/10/11 01:01:42;;;;;;;7.95;1.65;;;;;;;15.15;57.68;101330.72;5092018;28;20422;-67
2023/10/11 01:04:09;;;;;;;4.20;1.75;;;;;;;15.09;57.95;101327.94;5092141;28;20036;-67
2023/10/11 01:06:35;;;;;;;6.80;1.73;;;;;;;15.08;57.98;101319.25;5072985;28;20040;-67
2023/10/11 01:09:08;;;;;;;4.38;2.13;;;;;;;15.11;57.71;101328.88;5092068;28;20478;-67
2023/10/11 01:11:34;;;;;;;6.60;1.65;;;;;;;15.06;57.63;101322.66;5091810;28;20035;-67
2023/10/11 01:14:00;;;;;;;11.27;1.98;;;;;;;15.14;58.08;101331.56;5091930;28;20608;-67
2023/10/11 01:16:28;;;;;;;6.45;1.98;;;;;;;15.21;58.46;101330.91;5092126;28;20032;-67
2023/10/11 01:18:53;;;;;;;4.85;1.77;;;;;;;15.18;58.19;101320.44;5039267;28;20036;-67
2023/10/11 01:21:19;;;;;;;6.72;2.45;;;;;;;15.31;58.72;101325.16;5091940;28;20047;-67
2023/10/11 01:23:45;;;;;;;12.88;2.50;;;;;;;15.39;58.82;101332.34;5092014;28;20036;-67
2023/10/11 01:26:11;;;;;;;23.45;2.58;;;;;;;15.29;58.10;101315.56;5091730;28;20410;-67
2023/10/11 01:28:41;;;;;;;9.32;2.55;;;;;;;15.39;57.29;101332.34;5091893;28;20028;-67
2023/10/11 01:31:08;;;;;;;6.40;1.70;;;;;;;15.28;57.28;101343.28;5073180;28;20442;-67
2023/10/11 01:33:41;;;;;;;4.90;1.92;;;;;;;15.26;57.57;101336.28;5091407;28;20039;-67
2023/10/11 01:36:08;;;;;;;6.70;2.00;;;;;;;15.35;58.66;101350.47;5092170;28;20043;-67
2023/10/11 01:38:46;;;;;;;8.98;1.90;;;;;;;15.42;57.77;101348.06;5091401;28;20120;-67
2023/10/11 01:41:15;;;;;;;7.30;1.70;;;;;;;15.48;57.21;101343.91;5091668;28;20085;-67
2023/10/11 01:43:42;;;;;;;16.00;2.28;;;;;;;15.30;56.86;101307.81;5091498;28;20071;-67
2023/10/11 01:46:07;;;;;;;14.95;2.45;;;;;;;15.32;57.33;101307.84;5091389;28;20598;-67
2023/10/11 01:48:33;;;;;;;9.75;2.15;;;;;;;15.29;57.01;101321.66;5091643;28;20040;-67
2023/10/11 01:51:04;;;;;;;10.27;1.80;;;;;;;15.51;57.05;101354.44;5091411;28;20032;-67
2023/10/11 01:53:30;;;;;;;9.15;1.88;;;;;;;15.58;57.33;101358.09;5091339;28;20036;-67
2023/10/11 01:55:55;;;;;;;19.08;3.97;;;;;;;15.57;57.92;101351.13;5090919;28;20546;-67
2023/10/11 01:58:21;;;;;;;12.55;2.67;;;;;;;15.59;58.41;101352.06;5091006;28;20058;-67
2023/10/11 02:00:48;;;;;;;18.73;2.88;;;;;;;15.52;58.95;101360.50;5091041;28;20040;-67
2023/10/11 02:03:14;;;;;;;22.45;4.05;;;;;;;15.56;57.91;101362.34;5091137;28;20074;-67
2023/10/11 02:05:40;;;;;;;19.73;3.35;;;;;;;15.54;57.93;101366.66;5091001;28;20446;-67
2023/10/11 02:08:14;;;;;;;13.90;2.22;;;;;;;15.58;57.29;101365.91;5090795;28;20567;-67
2023/10/11 02:10:45;;;;;;;10.20;2.00;;;;;;;15.57;57.62;101371.06;5090969;28;20077;-67
2023/10/11 02:13:11;;;;;;;9.75;1.85;;;;;;;15.60;57.31;101373.75;5090895;28;20105;-67
2023/10/11 02:15:39;;;;;;;5.30;1.83;;;;;;;15.57;56.87;101382.34;5091054;28;20040;-67
2023/10/11 02:18:07;;;;;;;5.10;1.90;;;;;;;15.52;56.70;101383.94;5091180;28;20039;-67
2023/10/11 02:20:43;;;;;;;3.55;1.50;;;;;;;15.52;57.13;101379.59;5090956;28;20040;-67
2023/10/11 02:23:09;;;;;;;3.67;1.35;;;;;;;15.33;57.34;101388.53;5090468;28;20040;-68
2023/10/11 02:25:37;;;;;;;6.43;1.60;;;;;;;15.29;57.02;101398.78;5090099;28;20080;-67
2023/10/11 02:28:07;;;;;;;5.07;1.77;;;;;;;15.30;56.33;101398.88;5090764;28;20450;-67
2023/10/11 02:30:38;;;;;;;4.28;1.83;;;;;;;15.36;56.72;101393.88;5090937;28;20036;-68
2023/10/11 02:33:07;;;;;;;6.70;1.77;;;;;;;15.18;57.13;101346.44;5090989;28;20067;-67
2023/10/11 02:35:42;;;;;;;9.80;1.92;;;;;;;15.16;58.47;101354.19;5090933;28;20036;-68
2023/10/11 02:38:09;;;;;;;8.77;1.73;;;;;;;15.32;59.04;101401.50;5072810;28;20036;-67
2023/10/11 02:40:37;;;;;;;4.82;1.52;;;;;;;15.19;59.67;101401.13;5090726;28;20047;-67
2023/10/11 02:43:03;;;;;;;7.30;1.90;;;;;;;15.17;58.14;101407.09;5090830;28;20098;-68
2023/10/11 02:45:32;;;;;;;10.02;1.75;;;;;;;14.99;58.62;101389.16;5090395;28;20486;-67
2023/10/11 02:48:02;;;;;;;7.68;1.92;;;;;;;14.80;58.87;101374.66;5090752;28;20402;-68
2023/10/11 02:50:36;;;;;;;7.97;1.38;;;;;;;14.79;58.62;101414.47;5073293;28;20119;-67
2023/10/11 02:53:20;;;;;;;8.55;1.60;;;;;;;14.83;58.55;101419.84;5056268;28;20040;-67
2023/10/11 02:56:05;;;;;;;10.43;1.92;;;;;;;14.71;58.10;101406.41;5090500;28;20036;-67
2023/10/11 02:58:30;;;;;;;7.50;1.88;;;;;;;14.77;58.05;101435.22;5090238;28;20063;-67
2023/10/11 03:00:59;;;;;;;5.18;1.35;;;;;;;14.67;57.90;101418.41;5090614;28;20034;-67
2023/10/11 03:03:26;;;;;;;5.90;1.77;;;;;;;14.71;58.52;101425.47;5090643;28;20036;-67
2023/10/11 03:05:53;;;;;;;4.97;1.48;;;;;;;14.76;57.95;101428.25;5090224;28;20063;-67
2023/10/11 03:08:19;;;;;;;6.65;1.40;;;;;;;14.72;57.85;101424.66;5090534;28;20029;-67
2023/10/11 03:11:04;;;;;;;4.97;1.33;;;;;;;14.69;58.26;101416.75;5090376;28;20024;-67
2023/10/11 03:13:32;;;;;;;5.97;1.67;;;;;;;14.77;58.57;101429.16;5090643;28;20036;-67
2023/10/11 03:16:00;;;;;;;4.15;1.80;;;;;;;14.75;58.31;101425.59;5090175;28;20482;-67
2023/10/11 03:18:33;;;;;;;6.05;1.60;;;;;;;14.81;58.73;101421.50;5071127;28;20048;-67
2023/10/11 03:21:08;;;;;;;4.15;1.58;;;;;;;14.65;58.33;101388.00;5090107;28;20505;-67
2023/10/11 03:23:43;;;;;;;4.93;1.70;;;;;;;14.97;58.02;101420.31;5090249;28;20580;-67
2023/10/11 03:26:22;;;;;;;7.97;2.13;;;;;;;14.97;57.76;101412.50;5071983;28;20513;-67
2023/10/11 03:28:57;;;;;;;9.23;2.60;;;;;;;15.12;57.31;101424.28;5090363;28;20032;-67
2023/10/11 03:31:40;;;;;;;16.15;3.28;;;;;;;14.90;57.78;101366.31;5090185;28;20059;-67
2023/10/11 03:34:12;;;;;;;15.07;2.58;;;;;;;15.24;58.05;101413.38;5090329;28;20032;-67
2023/10/11 03:36:52;;;;;;;7.88;2.10;;;;;;;15.19;58.26;101416.72;5074955;28;20481;-67
2023/10/11 03:42:07;;;;;;;23.75;3.05;;;;;;;15.20;58.13;101418.50;5093859;28;20067;-67
2023/10/11 03:44:36;;;;;;;18.92;3.50;;;;;;;14.92;58.07;101364.66;5093709;28;20492;-67
2023/10/11 03:47:08;;;;;;;;;;;;;;;15.23;57.84;101415.09;5094279;28;20032;-67
2023/10/11 03:52:01;;;;;;;22.55;3.95;;;;;;;15.18;57.50;101416.69;5093644;28;20097;-67
2023/10/11 03:54:26;;;;;;;18.38;3.05;;;;;;;15.25;57.40;101430.75;5093792;28;20036;-67
2023/10/11 03:56:53;;;;;;;18.23;2.40;;;;;;;15.28;57.42;101433.47;5093132;28;20059;-67
2023/10/11 03:59:26;;;;;;;6.05;1.83;;;;;;;15.23;56.40;101419.41;5093407;28;20071;-68
2023/10/11 04:02:00;;;;;;;5.45;2.00;;;;;;;15.33;56.63;101432.78;5093126;28;20486;-67
2023/10/11 04:04:26;;;;;;;7.43;1.55;;;;;;;15.35;56.00;101431.13;5093114;28;20040;-67
2023/10/11 04:06:57;;;;;;;6.93;2.05;;;;;;;15.33;55.36;101432.78;5093226;28;20085;-67
2023/10/11 04:09:32;;;;;;;13.55;2.95;;;;;;;15.36;55.99;101430.28;5092631;28;20464;-67
2023/10/11 04:12:00;;;;;;;3.22;1.65;;;;;;;15.01;55.61;101390.97;5093010;28;20032;-67
2023/10/11 04:14:45;;;;;;;8.77;1.95;;;;;;;15.19;56.22;101439.25;5093284;28;20448;-67
2023/10/11 04:17:15;;;;;;;9.15;1.90;;;;;;;15.14;56.04;101438.19;5093108;28;20097;-67
2023/10/11 04:19:43;;;;;;;15.60;2.40;;;;;;;15.08;56.12;101437.97;5092713;28;20040;-67
2023/10/11 04:22:23;;;;;;;8.93;2.10;;;;;;;15.01;56.97;101439.50;5092701;28;20047;-67
2023/10/11 04:24:55;;;;;;;8.07;2.15;;;;;;;15.01;55.72;101445.56;5093051;28;20068;-67
2023/10/11 04:29:50;;;;;;;6.05;1.60;;;;;;;14.94;56.34;101450.50;5092668;28;20170;-68
2023/10/11 04:32:40;;;;;;;5.55;1.83;;;;;;;14.93;56.17;101454.84;5092926;28;20043;-67
2023/10/11 04:35:02;;;;;;;7.80;2.45;;;;;;;14.83;56.65;101442.38;5092435;28;20051;-67
2023/10/11 04:37:28;;;;;;;4.45;1.52;;;;;;;14.77;56.46;101439.53;5092652;28;20403;-67
2023/10/11 04:39:57;;;;;;;6.65;2.05;;;;;;;14.88;56.71;101457.28;5085159;28;20471;-68
2023/10/11 04:42:29;;;;;;;13.00;2.53;;;;;;;14.62;57.01;101422.53;5072350;28;20033;-67
2023/10/11 04:44:56;;;;;;;6.75;1.75;;;;;;;14.70;57.81;101439.31;5055226;28;20033;-68
2023/10/11 04:47:23;;;;;;;5.95;1.88;;;;;;;14.85;58.01;101471.88;5071416;28;20070;-68
2023/10/11 04:49:52;;;;;;;7.18;1.65;;;;;;;14.80;57.78;101473.44;5071937;28;20097;-67
2023/10/11 04:52:25;;;;;;;6.72;1.63;;;;;;;14.72;57.70;101471.44;5020955;28;20132;-67
2023/10/11 04:54:56;;;;;;;7.40;1.85;;;;;;;14.69;57.83;101473.03;5072034;28;20036;-67
2023/10/11 04:58:03;;;;;;;9.73;2.00;;;;;;;14.70;57.98;101478.31;5072010;28;20072;-67
2023/10/11 05:00:31;;;;;;;4.97;1.92;;;;;;;14.58;58.35;101480.44;5071619;28;20114;-67
2023/10/11 05:02:58;;;;;;;;;;;;;;;14.62;58.26;101479.72;5072604;28;20053;-67
2023/10/11 05:05:24;;;;;;;4.57;1.58;;;;;;;14.37;58.54;101442.44;5071876;28;19959;-67
2023/10/11 05:08:01;;;;;;;23.30;4.65;;;;;;;14.51;58.20;101465.44;5071915;28;20056;-67
2023/10/11 05:13:05;;;;;;;8.75;1.95;;;;;;;14.70;58.24;101490.41;5071848;28;20032;-67
2023/10/11 05:15:42;;;;;;;14.95;2.58;;;;;;;14.75;58.16;101485.38;5071569;28;20036;-67
2023/10/11 05:18:08;;;;;;;6.32;1.75;;;;;;;14.79;56.90;101485.56;5071688;28;20064;-67
2023/10/11 05:23:11;;;;;;;14.15;1.77;;;;;;;14.85;57.89;101488.38;5071646;28;20064;-67
2023/10/11 05:25:39;;;;;;;26.83;3.37;;;;;;;14.95;57.98;101499.97;5071436;28;20032;-67
2023/10/11 05:28:26;;;;;;;9.52;2.03;;;;;;;14.92;57.56;101507.66;5071254;28;20267;-67
2023/10/11 05:31:19;;;;;;;16.55;2.40;;;;;;;14.85;57.07;101495.28;5071565;28;20445;-67
2023/10/11 05:33:57;;;;;;;16.05;2.50;;;;;;;14.93;57.29;101511.16;5071331;28;20041;-67
2023/10/11 05:36:49;;;;;;;11.20;3.25;;;;;;;14.94;56.86;101499.91;5071356;28;20036;-67
2023/10/11 05:52:55;;;;;;;13.88;2.75;;;;;;;14.95;56.31;101523.38;5070991;28;20047;-67
2023/10/11 05:55:22;;;;;;;12.57;3.55;;;;;;;14.96;56.53;101525.16;5071036;28;20043;-67
2023/10/11 05:57:48;;;;;;;7.57;1.70;;;;;;;14.93;56.27;101525.06;5070992;28;20086;-67
2023/10/11 06:00:23;;;;;;;6.05;1.83;;;;;;;14.99;56.65;101526.97;5071382;28;20040;-67
2023/10/11 06:02:52;;;;;;;10.30;2.03;;;;;;;15.06;56.00;101541.09;5070931;28;20033;-67
2023/10/11 06:05:22;;;;;;;10.52;1.85;;;;;;;15.01;55.14;101543.53;5070602;28;20039;-67
2023/10/11 06:08:00;;;;;;;;;;;;;;;14.97;55.64;101546.84;5071400;28;20395;-67
2023/10/11 06:10:29;;;;;;;11.73;1.60;;;;;;;14.92;55.20;101551.88;5070920;28;19951;-67
2023/10/11 06:12:58;;;;;;;26.42;3.10;;;;;;;14.90;56.13;101560.44;5070990;28;20098;-67
2023/10/11 06:15:23;;;;;;;13.35;2.53;;;;;;;14.91;55.20;101552.69;5071019;28;20045;-67
2023/10/11 06:17:49;;;;;;;13.32;1.90;;;;;;;14.93;55.37;101561.44;5070846;28;20089;-67
2023/10/11 06:20:27;;;;;;;6.85;1.73;;;;;;;14.99;55.16;101553.88;5070795;28;20139;-67
2023/10/11 06:22:56;;;;;;;11.13;2.80;;;;;;;15.01;54.59;101567.78;5070321;28;20517;-67
2023/10/11 06:25:23;;;;;;;10.48;2.03;;;;;;;15.06;55.34;101559.28;5070460;28;20464;-67
2023/10/11 06:30:23;;;;;;;9.75;2.17;;;;;;;15.10;54.58;101555.97;5070740;28;20044;-68
2023/10/11 06:32:50;;;;;;;10.52;2.67;;;;;;;15.17;55.69;101557.97;5070659;28;20053;-67
2023/10/11 06:35:25;;;;;;;17.35;2.55;;;;;;;15.23;53.24;101560.78;5070558;28;20044;-67
2023/10/11 06:37:54;;;;;;;14.30;2.55;;;;;;;15.08;54.57;101523.81;5070551;28;20062;-67
2023/10/11 06:43:08;;;;;;;15.38;2.30;;;;;;;15.37;52.99;101571.66;4988755;28;20038;-67
2023/10/11 06:45:35;;;;;;;13.48;2.35;;;;;;;15.36;54.08;101576.00;4988630;28;20055;-67
2023/10/11 06:48:06;;;;;;;16.67;2.58;;;;;;;15.23;53.86;101542.56;4988576;28;20069;-67
2023/10/11 06:50:36;;;;;;;10.43;2.30;;;;;;;15.56;53.23;101578.38;4988839;28;20046;-67
2023/10/11 06:53:07;;;;;;;14.07;2.10;;;;;;;15.61;52.66;101574.22;4988733;28;20072;-67
2023/10/11 06:55:47;;;;;;;12.55;2.50;;;;;;;15.71;52.17;101574.53;4988698;28;20066;-67
2023/10/11 06:58:19;;;;;;;15.75;2.97;;;;;;;15.66;51.42;101566.56;4988512;28;20137;-67
2023/10/11 07:00:48;;;;;;;10.60;1.90;;;;;;;15.76;51.29;101578.19;4988554;28;20050;-67
2023/10/11 07:05:48;;;;;;;8.25;2.20;;;;;;;15.89;51.74;101569.09;4988384;28;20074;-67
2023/10/11 07:08:31;;;;;;;23.45;2.70;;;;;;;15.96;50.91;101578.88;4988505;28;20472;-67
2023/10/11 07:14:00;;;;;;;13.63;2.20;;;;;;;16.05;51.03;101583.50;4953474;29;20042;-67
2023/10/11 07:16:29;;;;;;;11.00;2.00;;;;;;;16.01;50.33;101565.19;4953378;29;20458;-67
2023/10/11 07:18:57;;;;;;;14.30;2.22;;;;;;;16.18;51.50;101578.72;4953465;29;20044;-67
2023/10/11 07:21:26;;;;;;;13.98;2.20;;;;;;;16.26;49.67;101585.91;5010449;28;20034;-68
2023/10/11 07:28:51;;;;;;;13.00;2.35;;;;;;;16.38;49.23;101598.44;5011601;28;20058;-67
2023/10/11 07:31:32;;;;;;;11.02;2.30;;;;;;;16.36;49.65;101585.34;5011471;28;20046;-67
2023/10/11 07:34:09;;;;;;;12.82;2.17;;;;;;;16.40;49.21;101589.84;4994935;28;20420;-67
2023/10/11 07:36:37;;;;;;;21.05;2.72;;;;;;;16.49;50.55;101589.22;4979582;28;20397;-67
2023/10/11 07:44:31;;;;;;;7.55;1.50;;;;;;;16.56;50.44;101593.81;4972293;28;20348;-68
2023/10/11 07:46:57;;;;;;;4.22;1.42;;;;;;;16.49;49.79;101597.06;4972241;28;20043;-67
2023/10/11 07:49:23;;;;;;;12.68;2.30;;;;;;;15.99;51.09;101535.59;4971962;28;20121;-68
2023/10/11 07:51:53;;;;;;;5.13;1.90;;;;;;;16.34;50.08;101593.13;4991468;28;20038;-67
2023/10/11 07:54:21;;;;;;;10.30;2.00;;;;;;;16.36;51.08;101602.72;4991636;28;20042;-67
2023/10/11 07:56:49;;;;;;;8.57;2.20;;;;;;;16.29;51.48;101610.34;4991511;28;20537;-67
2023/10/11 07:59:15;;;;;;;4.47;1.50;;;;;;;16.34;51.98;101608.75;4991261;28;20053;-67
2023/10/11 08:01:43;;;;;;;4.10;1.75;;;;;;;16.38;51.11;101608.88;4991485;28;20034;-67
2023/10/11 08:04:15;;;;;;;7.47;1.77;;;;;;;16.42;51.92;101611.59;4991177;28;20402;-68
2023/10/11 08:06:41;;;;;;;4.82;1.50;;;;;;;16.48;52.68;101608.31;4991257;28;20552;-67
2023/10/11 08:09:09;;;;;;;4.70;1.40;;;;;;;16.53;50.71;101601.50;4991268;28;20129;-67
2023/10/11 08:11:44;;;;;;;8.93;1.67;;;;;;;16.29;51.48;101570.38;4991252;28;20505;-67
2023/10/11 08:14:15;;;;;;;5.38;1.38;;;;;;;16.60;52.85;101613.03;4991395;28;20456;-67
2023/10/11 08:16:42;;;;;;;14.45;1.90;;;;;;;16.65;52.83;101598.41;4991034;28;20545;-68
2023/10/11 08:19:08;;;;;;;11.57;1.88;;;;;;;16.76;52.95;101610.03;5056322;28;20064;-67
2023/10/11 08:21:33;;;;;;;8.32;1.45;;;;;;;16.84;51.91;101612.88;5071895;28;20457;-67
2023/10/11 08:23:59;;;;;;;11.63;1.95;;;;;;;16.83;51.82;101611.09;5072967;28;20051;-67
2023/10/11 08:26:25;;;;;;;6.18;1.55;;;;;;;16.66;51.09;101585.41;5072466;28;20036;-67
2023/10/11 08:28:51;;;;;;;6.88;1.50;;;;;;;16.80;50.43;101616.22;5072654;28;20041;-67
2023/10/11 08:31:37;;;;;;;7.13;1.90;;;;;;;16.81;51.67;101613.66;5072873;28;20037;-67
2023/10/11 08:34:06;;;;;;;3.63;1.63;;;;;;;16.79;50.55;101617.94;5072643;28;20040;-67
2023/10/11 08:36:33;;;;;;;3.78;1.27;;;;;;;16.82;51.08;101627.56;5072648;28;20111;-67
2023/10/11 08:39:03;;;;;;;6.05;1.70;;;;;;;16.82;52.35;101617.16;5072789;28;20486;-67
2023/10/11 08:41:30;;;;;;;3.92;1.85;;;;;;;16.84;51.23;101622.44;5072148;28;20039;-67
2023/10/11 08:43:59;;;;;;;3.75;1.42;;;;;;;16.83;51.37;101624.13;5072511;28;20036;-67
2023/10/11 08:46:31;;;;;;;4.93;1.55;;;;;;;16.81;52.64;101613.66;5072366;28;20079;-67
2023/10/11 08:49:00;;;;;;;8.93;2.13;;;;;;;16.88;52.88;101622.53;5072361;28;20051;-67
2023/10/11 08:51:36;;;;;;;8.38;2.38;;;;;;;16.94;52.27;101620.16;5072444;28;20040;-67
2023/10/11 08:54:11;;;;;;;3.92;1.70;;;;;;;16.92;51.97;101619.25;5072367;28;20032;-67
2023/10/11 08:56:38;;;;;;;8.88;2.10;;;;;;;16.92;51.92;101614.03;5072225;28;20497;-67
2023/10/11 08:59:04;;;;;;;5.07;1.80;;;;;;;16.92;52.48;101603.59;5054038;28;20052;-67
2023/10/11 09:01:29;;;;;;;4.82;1.83;;;;;;;16.92;52.52;101620.94;5072173;28;20478;-67
2023/10/11 09:04:11;;;;;;;11.18;2.40;;;;;;;16.63;51.56;101572.25;5071892;28;20521;-67
2023/10/11 09:06:41;;;;;;;7.95;1.65;;;;;;;16.93;52.34;101610.56;5071841;28;20043;-67
2023/10/11 09:09:10;;;;;;;5.93;1.85;;;;;;;17.08;51.93;101612.72;5071827;28;20383;-67
2023/10/11 09:11:35;;;;;;;6.10;1.70;;;;;;;17.04;51.21;101607.38;5072047;28;20032;-67
2023/10/11 09:14:11;;;;;;;8.27;1.60;;;;;;;17.07;51.49;101616.19;5072085;28;20047;-67
2023/10/11 09:16:37;;;;;;;6.57;1.75;;;;;;;17.11;51.08;101614.56;5053651;28;20079;-67
2023/10/11 09:19:09;;;;;;;5.82;1.85;;;;;;;17.20;50.32;101614.81;5071636;28;20065;-67
2023/10/11 09:21:38;;;;;;;3.47;1.67;;;;;;;17.11;50.49;101578.91;5053878;28;20036;-67
2023/10/11 09:24:23;;;;;;;5.05;1.10;;;;;;;17.17;51.84;101566.84;5071865;28;20040;-67
2023/10/11 09:29:43;;;;;;;2.92;1.33;;;;;;;17.56;50.93;101613.16;5071534;28;20501;-67
2023/10/11 09:32:09;;;;;;;7.15;2.03;;;;;;;17.60;50.42;101610.66;5071608;28;20036;-68
2023/10/11 09:34:41;;;;;;;3.17;1.45;;;;;;;17.78;50.90;101614.59;5071188;28;20182;-66
2023/10/11 09:37:11;;;;;;;4.25;1.55;;;;;;;17.86;50.59;101602.63;5071380;28;20470;-67
2023/10/11 09:39:40;;;;;;;5.00;1.73;;;;;;;17.78;49.90;101597.22;5020959;28;20036;-67
2023/10/11 09:42:10;;;;;;;3.17;1.50;;;;;;;18.07;52.07;101593.59;5071343;28;20041;-67
2023/10/11 09:44:44;;;;;;;7.25;1.52;;;;;;;18.18;47.92;101555.50;5071186;28;20045;-67
2023/10/11 09:47:16;;;;;;;6.25;1.85;;;;;;;18.51;48.32;101578.03;5071162;28;20064;-67
2023/10/11 09:49:42;;;;;;;8.18;3.17;;;;;;;18.33;49.60;101541.00;5071217;28;20051;-67
2023/10/11 09:52:15;;;;;;;7.43;1.90;;;;;;;18.72;48.10;101574.13;5071330;28;20037;-67
2023/10/11 09:54:41;;;;;;;4.30;1.50;;;;;;;18.71;48.28;101564.50;5071347;28;20031;-67
2023/10/11 09:57:24;;;;;;;6.60;1.80;;;;;;;19.06;46.16;101569.59;5071177;28;20111;-67
2023/10/11 10:00:08;;;;;;;6.90;1.67;;;;;;;19.27;45.74;101566.50;5071243;28;20127;-67
2023/10/11 10:02:36;;;;;;;8.73;2.13;;;;;;;19.47;45.22;101556.38;5071126;28;20033;-67
2023/10/11 10:05:05;;;;;;;4.43;1.90;;;;;;;19.65;44.43;101558.47;5071175;28;20036;-67
2023/10/11 10:10:08;;;;;;;8.57;2.35;;;;;;;19.92;44.66;101557.16;5071132;28;20044;-68
2023/10/11 10:12:34;;;;;;;8.13;2.38;;;;;;;20.02;44.46;101551.19;5071001;28;20079;-67
2023/10/11 10:15:02;;;;;;;8.27;2.15;;;;;;;20.08;43.58;101552.19;5071181;28;20048;-67
2023/10/11 10:17:28;;;;;;;6.63;1.88;;;;;;;19.82;42.02;101502.81;5070938;28;20029;-67
2023/10/11 10:20:00;;;;;;;4.97;1.48;;;;;;;20.15;42.71;101538.28;5053020;28;20087;-67
2023/10/11 10:22:32;;;;;;;8.50;2.22;;;;;;;20.20;42.27;101532.25;5070734;28;20128;-67
2023/10/11 10:25:30;;;;;;;15.05;2.10;;;;;;;20.48;43.89;101532.63;5070567;28;20039;-67
2023/10/11 10:27:56;;;;;;;6.70;1.58;;;;;;;20.53;41.29;101527.44;4988690;28;20414;-67
2023/10/11 10:30:27;;;;;;;11.68;2.25;;;;;;;20.65;41.34;101534.59;4989029;28;20053;-67
2023/10/11 10:33:19;;;;;;;4.88;1.88;;;;;;;20.80;44.27;101526.91;4988913;28;20073;-67
2023/10/11 10:35:45;;;;;;;6.78;1.88;;;;;;;20.99;42.28;101527.13;4988927;28;20117;-67
2023/10/11 10:38:10;;;;;;;11.48;2.30;;;;;;;21.05;42.48;101521.94;4988824;28;20117;-68
2023/10/11 10:40:45;;;;;;;7.22;2.00;;;;;;;21.06;40.96;101500.09;4988894;28;20049;-67
2023/10/11 10:43:19;;;;;;;4.30;1.77;;;;;;;21.21;42.31;101514.22;4988852;28;20489;-67
2023/10/11 10:45:49;;;;;;;5.50;1.80;;;;;;;21.31;40.30;101495.06;4990635;28;20547;-67
2023/10/11 10:48:19;;;;;;;5.43;2.00;;;;;;;21.37;41.71;101508.25;4992830;28;20568;-67
2023/10/11 10:50:46;;;;;;;9.32;2.28;;;;;;;21.38;41.13;101498.63;4992611;28;20063;-67
2023/10/11 10:53:14;;;;;;;3.70;1.80;;;;;;;21.25;41.35;101490.63;4992671;28;20042;-67
2023/10/11 10:55:42;;;;;;;5.75;2.15;;;;;;;21.29;41.37;101502.91;4992711;28;20034;-67
2023/10/11 10:58:08;;;;;;;6.88;2.13;;;;;;;21.07;41.66;101501.84;4992337;28;20058;-67
2023/10/11 11:00:38;;;;;;;8.82;2.03;;;;;;;21.17;42.36;101494.91;4992654;28;20508;-67
2023/10/11 11:03:16;;;;;;;6.43;2.28;;;;;;;20.85;41.21;101490.25;5018663;28;20055;-67
2023/10/11 11:05:58;;;;;;;5.65;1.83;;;;;;;21.09;42.03;101484.34;5074232;28;20036;-67
2023/10/11 11:08:27;;;;;;;4.22;1.90;;;;;;;21.26;39.98;101479.25;5074269;28;20040;-67
2023/10/11 11:13:50;;;;;;;5.90;1.98;;;;;;;21.60;41.56;101486.56;5074156;28;20063;-67
2023/10/11 11:16:26;;;;;;;5.93;2.03;;;;;;;21.62;39.94;101434.88;5073905;28;20115;-67
2023/10/11 11:18:52;;;;;;;7.25;2.03;;;;;;;21.85;40.35;101458.69;5073927;28;20037;-67
2023/10/11 11:21:25;;;;;;;4.28;1.90;;;;;;;21.88;40.34;101465.72;5073712;28;20060;-67
2023/10/11 11:23:52;;;;;;;3.88;1.55;;;;;;;21.71;40.27;101460.34;5074068;28;20043;-67
2023/10/11 11:26:23;;;;;;;3.90;1.90;;;;;;;21.84;40.78;101459.56;5073583;28;20028;-67
2023/10/11 11:28:51;;;;;;;4.50;1.80;;;;;;;21.79;40.72;101466.56;5073889;28;20024;-67
2023/10/11 11:31:30;;;;;;;7.07;1.98;;;;;;;21.52;39.99;101419.91;5073528;28;20445;-67
2023/10/11 11:34:12;;;;;;;5.15;1.95;;;;;;;21.53;39.64;101440.06;5073870;28;20041;-66
2023/10/11 11:36:41;;;;;;;7.13;2.33;;;;;;;21.73;39.86;101456.91;5073379;28;20048;-67
2023/10/11 11:39:27;;;;;;;6.40;2.05;;;;;;;21.51;39.55;101390.13;5056148;28;20036;-67
2023/10/11 11:41:57;;;;;;;7.72;2.58;;;;;;;22.05;40.21;101450.91;5021581;28;20410;-67
2023/10/11 11:44:24;;;;;;;11.80;2.95;;;;;;;22.23;40.61;101447.50;5055657;28;20486;-68
2023/10/11 11:46:52;;;;;;;9.27;2.80;;;;;;;22.40;39.56;101449.34;5073739;28;20138;-67
2023/10/11 11:49:25;;;;;;;6.20;2.90;;;;;;;22.43;38.89;101444.09;5073319;28;20578;-67
2023/10/11 11:51:52;;;;;;;7.57;2.40;;;;;;;22.44;37.82;101430.06;5073593;28;20036;-67
2023/10/11 11:54:20;;;;;;;9.10;2.10;;;;;;;22.50;39.15;101439.75;5073473;28;20106;-67
2023/10/11 11:56:47;;;;;;;4.18;2.25;;;;;;;22.40;39.24;101423.06;5073239;28;20033;-67
2023/10/11 11:59:18;;;;;;;3.65;2.03;;;;;;;22.57;38.42;101438.91;5073063;28;20048;-67
2023/10/11 12:01:52;;;;;;;4.47;1.75;;;;;;;22.46;38.61;101431.81;5073285;28;20036;-67
2023/10/11 12:04:33;;;;;;;8.93;1.80;;;;;;;22.35;37.11;101420.34;5073274;28;20446;-68
2023/10/11 12:07:05;;;;;;;6.13;1.90;;;;;;;22.30;37.71;101424.72;5073202;28;20040;-67
2023/10/11 12:09:32;;;;;;;6.82;1.80;;;;;;;22.37;36.59;101418.66;5073144;28;20029;-67
2023/10/11 12:12:04;;;;;;;2.85;1.88;;;;;;;22.18;36.92;101386.13;5072759;28;20036;-68
2023/10/11 12:14:30;;;;;;;5.18;1.83;;;;;;;22.48;38.32;101416.06;5072871;28;20037;-67
2023/10/11 12:16:57;;;;;;;7.75;2.15;;;;;;;22.58;38.65;101422.19;5073079;28;20558;-67
2023/10/11 12:19:22;;;;;;;4.82;2.05;;;;;;;22.69;37.49;101414.34;5072948;28;20033;-68
2023/10/11 12:21:51;;;;;;;6.28;1.95;;;;;;;22.21;38.68;101324.75;5020695;28;20102;-67
2023/10/11 12:24:16;;;;;;;3.22;1.83;;;;;;;22.68;37.16;101410.84;5072301;28;20048;-67
2023/10/11 12:26:43;;;;;;;7.80;2.03;;;;;;;22.66;37.83;101415.22;5072913;28;20489;-67
2023/10/11 12:29:14;;;;;;;4.75;2.05;;;;;;;22.48;38.04;101379.22;5072736;28;20155;-67
2023/10/11 12:31:40;;;;;;;4.47;2.15;;;;;;;22.66;37.42;101403.81;5072716;28;20040;-67
2023/10/11 12:34:09;;;;;;;5.35;2.22;;;;;;;22.51;37.65;101388.88;5072671;28;20048;-67
2023/10/11 12:36:39;;;;;;;4.05;1.88;;;;;;;22.62;36.11;101402.94;5072739;28;20032;-67